nws-alerts: Checking more than four warning/county codes can delay the loading of your pages. You should use a cron job to get the data.
EllijayWeather Station Historical Data
Daily Summary for December 07, 2019 Units:  English    Metric   Both
Daily Weekly Monthly Yearly Custom
  High: Low: Average:
Temperature: 60.8 °F 36.7 °F 47.2 °F
Dew Point: 45.5 °F 35.6 °F 40.7 °F
Humidity: 98% 49% 80%
Wind Speed: 4mph 0mph 0mph
Wind Gust: 6mph - -
Wind- - ESE
Pressure: 30.34 in 30.24 in -
Precipitation: 0 in    
Historical Graphs
 
 
Tabular Data for December 07, 2019
Time Temperature Dew Point Pressure Wind Wind Speed Wind Gust Humidity Rainfall Rate (Hourly) solar
00:00 46.9 °F 44.4 °F 30.24 in Calm     91% 0 in meteobridge W/m2
00:05 46.9 °F 44.4 °F 30.24 in Calm     91% 0 in meteobridge W/m2
00:10 46.9 °F 44.4 °F 30.24 in Calm     91% 0 in meteobridge W/m2
00:15 46.9 °F 44.4 °F 30.24 in Calm     91% 0 in meteobridge W/m2
00:20 46.9 °F 44.8 °F 30.24 in Calm     92% 0 in meteobridge W/m2
00:25 46.9 °F 44.4 °F 30.24 in Calm     91% 0 in meteobridge W/m2
00:30 46.9 °F 44.8 °F 30.24 in Calm     92% 0 in meteobridge W/m2
00:35 46.8 °F 44.2 °F 30.24 in Calm     91% 0 in meteobridge W/m2
00:40 46.8 °F 44.2 °F 30.24 in Calm     91% 0 in meteobridge W/m2
00:45 46.6 °F 44.1 °F 30.24 in Calm     91% 0 in meteobridge W/m2
00:50 46.4 °F 43.9 °F 30.24 in Calm     91% 0 in meteobridge W/m2
00:55 46.2 °F 43.7 °F 30.24 in Calm     91% 0 in meteobridge W/m2
01:00 46 °F 43.5 °F 30.24 in Calm     91% 0 in meteobridge W/m2
01:05 45.9 °F 43.3 °F 30.24 in Calm     91% 0 in meteobridge W/m2
01:10 45.7 °F 43.2 °F 30.24 in Calm     91% 0 in meteobridge W/m2
01:15 45.5 °F 43 °F 30.24 in Calm     91% 0 in meteobridge W/m2
01:20 45.3 °F 42.8 °F 30.24 in Calm     91% 0 in meteobridge W/m2
01:25 45 °F 42.8 °F 30.24 in Calm     92% 0 in meteobridge W/m2
01:30 44.8 °F 42.6 °F 30.24 in Calm     92% 0 in meteobridge W/m2
01:35 44.6 °F 42.6 °F 30.24 in Calm     93% 0 in meteobridge W/m2
01:40 44.4 °F 42.4 °F 30.24 in Calm     93% 0 in meteobridge W/m2
01:45 44.2 °F 42.3 °F 30.24 in Calm     93% 0 in meteobridge W/m2
01:50 44.1 °F 42.1 °F 30.24 in Calm     93% 0 in meteobridge W/m2
01:55 44.1 °F 42.4 °F 30.24 in Calm     94% 0 in meteobridge W/m2
02:00 44.1 °F 42.4 °F 30.25 in Calm     94% 0 in meteobridge W/m2
02:05 44.1 °F 42.4 °F 30.25 in Calm     94% 0 in meteobridge W/m2
02:10 44.1 °F 42.8 °F 30.25 in Calm     95% 0 in meteobridge W/m2
02:15 44.1 °F 42.8 °F 30.25 in Calm     95% 0 in meteobridge W/m2
02:20 44.1 °F 42.8 °F 30.25 in Calm     95% 0 in meteobridge W/m2
02:25 44.1 °F 42.8 °F 30.25 in Calm     95% 0 in meteobridge W/m2
02:30 44.2 °F 43 °F 30.25 in Calm     95% 0 in meteobridge W/m2
02:35 44.2 °F 43 °F 30.25 in Calm     95% 0 in meteobridge W/m2
02:40 44.2 °F 43 °F 30.24 in Calm     95% 0 in meteobridge W/m2
02:45 44.2 °F 43 °F 30.25 in Calm     95% 0 in meteobridge W/m2
02:50 44.2 °F 43 °F 30.25 in Calm     95% 0 in meteobridge W/m2
02:55 44.4 °F 43.2 °F 30.25 in Calm     95% 0 in meteobridge W/m2
03:00 44.4 °F 42.8 °F 30.25 in Calm     94% 0 in meteobridge W/m2
03:05 44.4 °F 42.8 °F 30.25 in Calm     94% 0 in meteobridge W/m2
03:10 44.4 °F 42.8 °F 30.25 in Calm     94% 0 in meteobridge W/m2
03:15 44.4 °F 42.8 °F 30.25 in Calm     94% 0 in meteobridge W/m2
03:20 44.4 °F 42.8 °F 30.25 in Calm     94% 0 in meteobridge W/m2
03:25 44.4 °F 42.8 °F 30.25 in Calm     94% 0 in meteobridge W/m2
03:30 44.4 °F 42.8 °F 30.25 in Calm     94% 0 in meteobridge W/m2
03:35 44.4 °F 42.8 °F 30.25 in Calm     94% 0 in meteobridge W/m2
03:40 44.6 °F 43 °F 30.25 in Calm     94% 0 in meteobridge W/m2
03:45 44.6 °F 43 °F 30.25 in Calm     94% 0 in meteobridge W/m2
03:50 44.6 °F 43 °F 30.25 in Calm     94% 0 in meteobridge W/m2
03:55 44.8 °F 43.2 °F 30.25 in Calm     94% 0 in meteobridge W/m2
04:00 44.8 °F 43.2 °F 30.25 in Calm     94% 0 in meteobridge W/m2
04:05 44.8 °F 43.2 °F 30.25 in Calm     94% 0 in meteobridge W/m2
04:10 44.8 °F 43.2 °F 30.25 in Calm     94% 0 in meteobridge W/m2
04:15 44.6 °F 43 °F 30.25 in Calm     94% 0 in meteobridge W/m2
04:20 44.4 °F 42.4 °F 30.25 in Calm     93% 0 in meteobridge W/m2
04:25 44.2 °F 42.3 °F 30.25 in Calm     93% 0 in meteobridge W/m2
04:30 44.1 °F 42.1 °F 30.24 in Calm     93% 0 in meteobridge W/m2
04:35 43.9 °F 41.9 °F 30.24 in Calm     93% 0 in meteobridge W/m2
04:40 43.5 °F 41.7 °F 30.25 in Calm     93% 0 in meteobridge W/m2
04:45 43.2 °F 41.4 °F 30.25 in Calm     93% 0 in meteobridge W/m2
04:50 43 °F 41.2 °F 30.25 in Calm     93% 0 in meteobridge W/m2
04:55 42.8 °F 41 °F 30.25 in Calm     93% 0 in meteobridge W/m2
05:00 42.4 °F 40.6 °F 30.25 in Calm     93% 0 in meteobridge W/m2
05:05 42.3 °F 40.6 °F 30.25 in Calm     94% 0 in meteobridge W/m2
05:10 42.1 °F 40.5 °F 30.25 in Calm     94% 0 in meteobridge W/m2
05:15 41.7 °F 40.1 °F 30.25 in Calm     94% 0 in meteobridge W/m2
05:20 41.7 °F 40.1 °F 30.25 in Calm     94% 0 in meteobridge W/m2
05:25 41.4 °F 39.7 °F 30.25 in Calm     94% 0 in meteobridge W/m2
05:30 41.4 °F 39.7 °F 30.25 in Calm     94% 0 in meteobridge W/m2
05:35 41.2 °F 39.6 °F 30.26 in Calm     94% 0 in meteobridge W/m2
05:40 40.8 °F 39.2 °F 30.26 in Calm     94% 0 in meteobridge W/m2
05:45 40.6 °F 39 °F 30.26 in Calm     94% 0 in meteobridge W/m2
05:50 40.5 °F 39.2 °F 30.26 in Calm     95% 0 in meteobridge W/m2
05:55 40.3 °F 39 °F 30.26 in Calm     95% 0 in meteobridge W/m2
06:00 39.9 °F 38.7 °F 30.26 in Calm     95% 0 in meteobridge W/m2
06:05 39.7 °F 38.5 °F 30.26 in Calm     95% 0 in meteobridge W/m2
06:10 39.6 °F 38.3 °F 30.26 in Calm     95% 0 in meteobridge W/m2
06:15 39.4 °F 38.1 °F 30.26 in Calm     95% 0 in meteobridge W/m2
06:20 39.4 °F 38.1 °F 30.26 in Calm     95% 0 in meteobridge W/m2
06:25 39.2 °F 37.9 °F 30.26 in Calm     95% 0 in meteobridge W/m2
06:30 39 °F 37.8 °F 30.27 in Calm     95% 0 in meteobridge W/m2
06:35 38.8 °F 37.6 °F 30.27 in Calm     95% 0 in meteobridge W/m2
06:40 38.8 °F 37.6 °F 30.27 in Calm     95% 0 in meteobridge W/m2
06:45 38.7 °F 37.4 °F 30.27 in Calm     95% 0 in meteobridge W/m2
06:50 38.7 °F 37.4 °F 30.27 in Calm     95% 0 in meteobridge W/m2
06:55 38.5 °F 37.2 °F 30.27 in Calm     95% 0 in meteobridge W/m2
07:00 38.3 °F 37 °F 30.27 in Calm     95% 0 in meteobridge W/m2
07:05 38.1 °F 36.9 °F 30.27 in Calm     95% 0 in meteobridge W/m2
07:10 37.9 °F 36.7 °F 30.28 in Calm     95% 0 in meteobridge W/m2
07:15 37.8 °F 36.5 °F 30.28 in Calm     95% 0 in meteobridge W/m2
07:20 37.6 °F 36.3 °F 30.28 in Calm     95% 0 in meteobridge W/m2
07:25 37.6 °F 36.3 °F 30.28 in Calm     95% 0 in meteobridge W/m2
07:30 37.2 °F 36 °F 30.28 in Calm     95% 0 in meteobridge W/m2
07:35 37 °F 35.8 °F 30.28 in Calm     95% 0 in meteobridge W/m2
07:40 37 °F 35.8 °F 30.29 in Calm     95% 0 in meteobridge W/m2
07:45 36.9 °F 35.6 °F 30.29 in Calm     95% 0 in meteobridge W/m2
07:50 36.9 °F 35.8 °F 30.29 in Calm     96% 0 in meteobridge W/m2
07:55 36.7 °F 35.6 °F 30.29 in Calm     96% 0 in meteobridge W/m2
08:00 36.7 °F 35.6 °F 30.29 in Calm     96% 0 in meteobridge W/m2
08:05 36.7 °F 35.6 °F 30.29 in Calm     96% 0 in meteobridge W/m2
08:10 36.7 °F 35.6 °F 30.29 in Calm     96% 0 in meteobridge W/m2
08:15 36.7 °F 35.6 °F 30.29 in Calm     96% 0 in meteobridge W/m2
08:20 36.9 °F 35.8 °F 30.30 in Calm     96% 0 in meteobridge W/m2
08:25 36.9 °F 35.8 °F 30.30 in Calm     96% 0 in meteobridge W/m2
08:30 36.9 °F 35.8 °F 30.30 in Calm     96% 0 in meteobridge W/m2
08:35 37 °F 36.3 °F 30.30 in Calm     97% 0 in meteobridge W/m2
08:40 37 °F 36.3 °F 30.30 in Calm     97% 0 in meteobridge W/m2
08:45 37.2 °F 36.5 °F 30.30 in Calm     97% 0 in meteobridge W/m2
08:50 37.6 °F 36.9 °F 30.30 in Calm     97% 0 in meteobridge W/m2
08:55 37.8 °F 37 °F 30.30 in Calm     97% 0 in meteobridge W/m2
09:00 38.1 °F 37.4 °F 30.30 in Calm     97% 0 in meteobridge W/m2
09:05 38.5 °F 37.9 °F 30.30 in Calm     98% 0 in meteobridge W/m2
09:10 39 °F 38.5 °F 30.30 in Calm     98% 0 in meteobridge W/m2
09:15 39.7 °F 39.2 °F 30.30 in Calm     98% 0 in meteobridge W/m2
09:20 40.6 °F 40.1 °F 30.30 in Calm     98% 0 in meteobridge W/m2
09:25 41.2 °F 40.6 °F 30.30 in Calm     98% 0 in meteobridge W/m2
09:30 42.1 °F 41.5 °F 30.30 in Calm     98% 0 in meteobridge W/m2
09:35 42.6 °F 42.1 °F 30.30 in Calm     98% 0 in meteobridge W/m2
09:40 43.3 °F 42.8 °F 30.30 in Calm     98% 0 in meteobridge W/m2
09:45 44.1 °F 43.5 °F 30.31 in Calm     98% 0 in meteobridge W/m2
09:50 44.8 °F 44.2 °F 30.31 in Calm     98% 0 in meteobridge W/m2
09:55 45.5 °F 44.2 °F 30.32 in Calm     95% 0 in meteobridge W/m2
10:00 46.2 °F 44.2 °F 30.32 in Calm     93% 0 in meteobridge W/m2
10:05 47.1 °F 44.6 °F 30.32 in Calm   1 mph 91% 0 in meteobridge W/m2
10:10 47.7 °F 45 °F 30.32 in Calm     90% 0 in meteobridge W/m2
10:15 48.4 °F 45 °F 30.32 in Calm     88% 0 in meteobridge W/m2
10:20 48.9 °F 45.1 °F 30.31 in Calm     87% 0 in meteobridge W/m2
10:25 49.5 °F 44.6 °F 30.32 in Calm     83% 0 in meteobridge W/m2
10:30 50.4 °F 45.1 °F 30.32 in Calm   1 mph 82% 0 in meteobridge W/m2
10:35 51.3 °F 45 °F 30.32 in Calm     79% 0 in meteobridge W/m2
10:40 52.3 °F 45.3 °F 30.31 in Calm     77% 0 in meteobridge W/m2
10:45 53.4 °F 45.3 °F 30.31 in Calm   4 mph 74% 0 in meteobridge W/m2
10:50 54.1 °F 45.3 °F 30.31 in Calm     72% 0 in meteobridge W/m2
10:55 55 °F 45.5 °F 30.32 in Calm     70% 0 in meteobridge W/m2
11:00 55.4 °F 45.3 °F 30.32 in Calm   1 mph 69% 0 in meteobridge W/m2
11:05 55.8 °F 45 °F 30.32 in Calm   1 mph 67% 0 in meteobridge W/m2
11:10 56.3 °F 44.6 °F 30.31 in Calm     65% 0 in meteobridge W/m2
11:15 56.8 °F 43.2 °F 30.32 in Calm   2 mph 60% 0 in meteobridge W/m2
11:20 57.4 °F 42.3 °F 30.31 in East 4 mph 6 mph 57% 0 in meteobridge W/m2
11:25 57.7 °F 41.7 °F 30.32 in Calm   2 mph 55% 0 in meteobridge W/m2
11:30 57.7 °F 41.2 °F 30.32 in Calm   2 mph 54% 0 in meteobridge W/m2
11:35 57.9 °F 42.3 °F 30.31 in ESE 0.9 mph 1 mph 56% 0 in meteobridge W/m2
11:40 58.1 °F 41 °F 30.31 in Calm   4 mph 53% 0 in meteobridge W/m2
11:45 58.3 °F 41.7 °F 30.31 in Calm   1 mph 54% 0 in meteobridge W/m2
11:50 58.5 °F 41.4 °F 30.31 in Calm   4 mph 53% 0 in meteobridge W/m2
11:55 58.5 °F 41.9 °F 30.31 in Calm   1 mph 54% 0 in meteobridge W/m2
12:00 58.6 °F 42.1 °F 30.31 in Calm     54% 0 in meteobridge W/m2
12:05 58.8 °F 41.7 °F 30.30 in Calm   1 mph 53% 0 in meteobridge W/m2
12:10 59 °F 41.9 °F 30.30 in Calm   1 mph 53% 0 in meteobridge W/m2
12:15 59.2 °F 41.5 °F 30.30 in Calm   2 mph 52% 0 in meteobridge W/m2
12:20 58.8 °F 41.2 °F 30.30 in Calm   1 mph 52% 0 in meteobridge W/m2
12:25 58.8 °F 41.7 °F 30.29 in ESE 2 mph 4 mph 53% 0 in meteobridge W/m2
12:30 58.6 °F 41 °F 30.29 in SE 0.9 mph 5 mph 52% 0 in meteobridge W/m2
12:35 58.8 °F 41.2 °F 30.29 in Calm   4 mph 52% 0 in meteobridge W/m2
12:40 58.8 °F 41.7 °F 30.29 in Calm   1 mph 53% 0 in meteobridge W/m2
12:45 58.6 °F 41.5 °F 30.29 in Calm     53% 0 in meteobridge W/m2
12:50 58.6 °F 42.4 °F 30.29 in Calm   1 mph 55% 0 in meteobridge W/m2
12:55 59.4 °F 42.3 °F 30.29 in Calm   4 mph 53% 0 in meteobridge W/m2
13:00 59.5 °F 41.9 °F 30.28 in Calm   3 mph 52% 0 in meteobridge W/m2
13:05 59.7 °F 42.1 °F 30.28 in ENE 0.9 mph 2 mph 52% 0 in meteobridge W/m2
13:10 59.7 °F 42.6 °F 30.28 in Calm   1 mph 53% 0 in meteobridge W/m2
13:15 59.7 °F 41.5 °F 30.28 in Calm   5 mph 51% 0 in meteobridge W/m2
13:20 59.7 °F 42.6 °F 30.28 in Calm     53% 0 in meteobridge W/m2
13:25 60.1 °F 41.4 °F 30.29 in Calm   2 mph 50% 0 in meteobridge W/m2
13:30 60.1 °F 41.9 °F 30.28 in Calm     51% 0 in meteobridge W/m2
13:35 60.3 °F 41.5 °F 30.28 in Calm     50% 0 in meteobridge W/m2
13:40 60.3 °F 42.6 °F 30.28 in Calm     52% 0 in meteobridge W/m2
13:45 60.3 °F 41.5 °F 30.27 in Calm     50% 0 in meteobridge W/m2
13:50 60.4 °F 41.7 °F 30.27 in Calm   1 mph 50% 0 in meteobridge W/m2
13:55 60.8 °F 41.5 °F 30.27 in Calm   5 mph 49% 0 in meteobridge W/m2
14:00 60.4 °F 41.7 °F 30.27 in Calm     50% 0 in meteobridge W/m2
14:05 60.1 °F 41.9 °F 30.27 in ESE 4 mph 4 mph 51% 0 in meteobridge W/m2
14:10 59.7 °F 41.5 °F 30.27 in Calm     51% 0 in meteobridge W/m2
14:15 59.5 °F 41.4 °F 30.27 in Calm   1 mph 51% 0 in meteobridge W/m2
14:20 59.2 °F 41.5 °F 30.27 in Calm     52% 0 in meteobridge W/m2
14:25 58.8 °F 42.3 °F 30.27 in Calm     54% 0 in meteobridge W/m2
14:30 58.8 °F 43.7 °F 30.27 in Calm     57% 0 in meteobridge W/m2
14:35 58.8 °F 43.2 °F 30.27 in Calm     56% 0 in meteobridge W/m2
14:40 59 °F 42.4 °F 30.27 in Calm     54% 0 in meteobridge W/m2
14:45 59.4 °F 42.3 °F 30.27 in Calm     53% 0 in meteobridge W/m2
14:50 59.5 °F 41.9 °F 30.27 in Calm     52% 0 in meteobridge W/m2
14:55 59.5 °F 42.4 °F 30.27 in Calm   1 mph 53% 0 in meteobridge W/m2
15:00 59.5 °F 41.9 °F 30.27 in Calm   1 mph 52% 0 in meteobridge W/m2
15:05 59.5 °F 41.4 °F 30.27 in Calm     51% 0 in meteobridge W/m2
15:10 59.7 °F 43 °F 30.27 in Calm     54% 0 in meteobridge W/m2
15:15 59.7 °F 42.1 °F 30.27 in Calm     52% 0 in meteobridge W/m2
15:20 59.7 °F 43 °F 30.27 in Calm     54% 0 in meteobridge W/m2
15:25 59.5 °F 42.8 °F 30.27 in Calm     54% 0 in meteobridge W/m2
15:30 59.4 °F 42.3 °F 30.27 in Calm     53% 0 in meteobridge W/m2
15:35 59.4 °F 42.3 °F 30.28 in Calm     53% 0 in meteobridge W/m2
15:40 59.5 °F 42.4 °F 30.28 in Calm     53% 0 in meteobridge W/m2
15:45 59.4 °F 42.3 °F 30.27 in Calm     53% 0 in meteobridge W/m2
15:50 59.4 °F 42.3 °F 30.28 in Calm     53% 0 in meteobridge W/m2
15:55 59.2 °F 43.5 °F 30.28 in Calm     56% 0 in meteobridge W/m2
16:00 58.8 °F 43.7 °F 30.28 in Calm     57% 0 in meteobridge W/m2
16:05 58.6 °F 43.5 °F 30.27 in Calm     57% 0 in meteobridge W/m2
16:10 58.3 °F 41.7 °F 30.27 in Calm     54% 0 in meteobridge W/m2
16:15 58.1 °F 43 °F 30.27 in Calm     57% 0 in meteobridge W/m2
16:20 57.9 °F 42.8 °F 30.27 in Calm     57% 0 in meteobridge W/m2
16:25 57.7 °F 42.6 °F 30.27 in Calm     57% 0 in meteobridge W/m2
16:30 57.6 °F 43.3 °F 30.27 in Calm     59% 0 in meteobridge W/m2
16:35 57 °F 42.4 °F 30.27 in Calm     58% 0 in meteobridge W/m2
16:40 56.8 °F 42.3 °F 30.27 in Calm     58% 0 in meteobridge W/m2
16:45 56.8 °F 42.3 °F 30.27 in Calm     58% 0 in meteobridge W/m2
16:50 56.7 °F 42.1 °F 30.27 in Calm     58% 0 in meteobridge W/m2
16:55 56.3 °F 42.1 °F 30.27 in Calm     59% 0 in meteobridge W/m2
17:00 55.9 °F 42.6 °F 30.27 in Calm     61% 0 in meteobridge W/m2
17:05 55.8 °F 42.1 °F 30.27 in Calm     60% 0 in meteobridge W/m2
17:10 55.6 °F 42.8 °F 30.27 in Calm     62% 0 in meteobridge W/m2
17:15 55 °F 42.6 °F 30.27 in Calm     63% 0 in meteobridge W/m2
17:20 54.9 °F 42.4 °F 30.28 in Calm     63% 0 in meteobridge W/m2
17:25 54.3 °F 42.4 °F 30.28 in Calm     64% 0 in meteobridge W/m2
17:30 54.1 °F 41.9 °F 30.28 in Calm     63% 0 in meteobridge W/m2
17:35 53.8 °F 42.6 °F 30.28 in Calm     66% 0 in meteobridge W/m2
17:40 53.4 °F 42.3 °F 30.28 in Calm     66% 0 in meteobridge W/m2
17:45 53.2 °F 42.3 °F 30.28 in Calm     66% 0 in meteobridge W/m2
17:50 52.9 °F 42.3 °F 30.28 in Calm     67% 0 in meteobridge W/m2
17:55 52.5 °F 42.3 °F 30.29 in Calm     68% 0 in meteobridge W/m2
18:00 52.2 °F 42.3 °F 30.29 in Calm     69% 0 in meteobridge W/m2
18:05 51.6 °F 41.7 °F 30.29 in Calm     69% 0 in meteobridge W/m2
18:10 51.3 °F 41.9 °F 30.29 in Calm     70% 0 in meteobridge W/m2
18:15 50.7 °F 41.7 °F 30.29 in Calm     71% 0 in meteobridge W/m2
18:20 50.4 °F 41.7 °F 30.29 in Calm     72% 0 in meteobridge W/m2
18:25 49.8 °F 41.5 °F 30.30 in Calm     73% 0 in meteobridge W/m2
18:30 49.5 °F 41.5 °F 30.30 in Calm     74% 0 in meteobridge W/m2
18:36 48.9 °F 41 °F 30.30 in Calm     74% 0 in meteobridge W/m2
18:40 48.6 °F 41 °F 30.30 in Calm     75% 0 in meteobridge W/m2
18:45 48 °F 40.5 °F 30.30 in Calm     75% 0 in meteobridge W/m2
18:50 47.7 °F 40.5 °F 30.31 in Calm     76% 0 in meteobridge W/m2
18:55 47.5 °F 40.6 °F 30.31 in Calm     77% 0 in meteobridge W/m2
19:00 46.9 °F 40.5 °F 30.31 in Calm     78% 0 in meteobridge W/m2
19:05 46.6 °F 40.5 °F 30.31 in Calm     79% 0 in meteobridge W/m2
19:10 46.2 °F 40.1 °F 30.32 in Calm     79% 0 in meteobridge W/m2
19:15 46 °F 40.3 °F 30.32 in Calm     80% 0 in meteobridge W/m2
19:20 45.7 °F 39.9 °F 30.32 in Calm     80% 0 in meteobridge W/m2
19:25 45.3 °F 39.9 °F 30.32 in Calm     81% 0 in meteobridge W/m2
19:30 45.1 °F 39.7 °F 30.32 in Calm     81% 0 in meteobridge W/m2
19:35 45 °F 39.7 °F 30.32 in Calm     82% 0 in meteobridge W/m2
19:40 44.8 °F 39.6 °F 30.32 in Calm     82% 0 in meteobridge W/m2
19:45 44.2 °F 39 °F 30.32 in Calm     82% 0 in meteobridge W/m2
19:50 44.1 °F 39.2 °F 30.33 in Calm     83% 0 in meteobridge W/m2
19:55 43.9 °F 39 °F 30.33 in Calm     83% 0 in meteobridge W/m2
20:00 43.5 °F 39 °F 30.33 in Calm     84% 0 in meteobridge W/m2
20:05 43.2 °F 38.7 °F 30.33 in Calm     84% 0 in meteobridge W/m2
20:10 43 °F 38.8 °F 30.32 in Calm     85% 0 in meteobridge W/m2
20:15 42.6 °F 38.5 °F 30.32 in Calm     85% 0 in meteobridge W/m2
20:20 42.4 °F 38.3 °F 30.33 in Calm     85% 0 in meteobridge W/m2
20:25 42.3 °F 38.3 °F 30.33 in Calm     86% 0 in meteobridge W/m2
20:30 42.1 °F 38.1 °F 30.33 in Calm     86% 0 in meteobridge W/m2
20:35 42.1 °F 38.1 °F 30.33 in Calm     86% 0 in meteobridge W/m2
20:40 41.9 °F 37.9 °F 30.33 in Calm     86% 0 in meteobridge W/m2
20:45 41.5 °F 37.6 °F 30.33 in Calm     86% 0 in meteobridge W/m2
20:50 41.4 °F 37.8 °F 30.33 in Calm     87% 0 in meteobridge W/m2
20:55 41.4 °F 37.8 °F 30.33 in Calm     87% 0 in meteobridge W/m2
21:00 41.2 °F 37.9 °F 30.33 in Calm     88% 0 in meteobridge W/m2
21:05 41 °F 37.8 °F 30.34 in Calm     88% 0 in meteobridge W/m2
21:10 40.8 °F 37.6 °F 30.34 in Calm     88% 0 in meteobridge W/m2
21:15 40.6 °F 37.4 °F 30.34 in Calm     88% 0 in meteobridge W/m2
21:20 40.5 °F 37.2 °F 30.33 in Calm     88% 0 in meteobridge W/m2
21:25 40.3 °F 37.2 °F 30.33 in Calm     89% 0 in meteobridge W/m2
21:30 40.1 °F 37 °F 30.33 in Calm     89% 0 in meteobridge W/m2
21:35 39.9 °F 36.9 °F 30.34 in Calm     89% 0 in meteobridge W/m2
21:40 39.9 °F 36.9 °F 30.34 in Calm     89% 0 in meteobridge W/m2
21:45 39.9 °F 37.2 °F 30.34 in Calm     90% 0 in meteobridge W/m2
21:50 39.7 °F 36.7 °F 30.34 in Calm     89% 0 in meteobridge W/m2
21:55 39.7 °F 36.7 °F 30.33 in Calm     89% 0 in meteobridge W/m2
22:00 39.6 °F 36.5 °F 30.34 in Calm     89% 0 in meteobridge W/m2
22:05 39.6 °F 36.9 °F 30.34 in Calm     90% 0 in meteobridge W/m2
22:10 39.6 °F 36.9 °F 30.34 in Calm     90% 0 in meteobridge W/m2
22:15 39.6 °F 36.9 °F 30.33 in Calm     90% 0 in meteobridge W/m2
22:20 39.6 °F 36.9 °F 30.34 in Calm     90% 0 in meteobridge W/m2
22:25 39.6 °F 36.9 °F 30.34 in Calm     90% 0 in meteobridge W/m2
22:30 39.4 °F 36.7 °F 30.34 in Calm     90% 0 in meteobridge W/m2
22:35 39.4 °F 36.7 °F 30.34 in Calm     90% 0 in meteobridge W/m2
22:40 39.4 °F 37 °F 30.34 in Calm     91% 0 in meteobridge W/m2
22:45 39.4 °F 37 °F 30.34 in Calm     91% 0 in meteobridge W/m2
22:50 39.4 °F 37 °F 30.34 in Calm     91% 0 in meteobridge W/m2
22:55 39.2 °F 36.5 °F 30.33 in Calm     90% 0 in meteobridge W/m2
23:00 39 °F 36.3 °F 30.33 in Calm     90% 0 in meteobridge W/m2
23:05 38.8 °F 36.1 °F 30.33 in Calm     90% 0 in meteobridge W/m2
23:10 38.7 °F 36.3 °F 30.33 in Calm     91% 0 in meteobridge W/m2
23:15 38.7 °F 36.3 °F 30.33 in Calm     91% 0 in meteobridge W/m2
23:20 38.5 °F 36.1 °F 30.33 in Calm     91% 0 in meteobridge W/m2
23:25 38.5 °F 36.1 °F 30.33 in Calm     91% 0 in meteobridge W/m2
23:30 38.3 °F 36 °F 30.33 in Calm     91% 0 in meteobridge W/m2
23:35 38.1 °F 35.8 °F 30.32 in Calm     91% 0 in meteobridge W/m2
23:40 37.9 °F 35.8 °F 30.33 in Calm     92% 0 in meteobridge W/m2
23:45 38.1 °F 36 °F 30.33 in Calm     92% 0 in meteobridge W/m2
23:50 38.1 °F 36 °F 30.33 in Calm     92% 0 in meteobridge W/m2
23:55 38.1 °F 36 °F 30.33 in Calm     92% 0 in meteobridge W/m2
EllijayWeather
Compliments of Weather Underground - 2.5 mb